createdAt,value
2022-10-04T00:02:28.328Z,100714.72
2022-10-04T00:09:08.693Z,100701.03
2022-10-04T00:11:37.620Z,100698.22
2022-10-04T00:14:10.283Z,100700.81
2022-10-04T00:16:40.276Z,100701.91
2022-10-04T00:19:19.619Z,100703.63
2022-10-04T00:21:53.472Z,100698.91
2022-10-04T00:24:22.211Z,100711.03
2022-10-04T00:26:49.338Z,100696.22
2022-10-04T00:29:31.988Z,100699.88
2022-10-04T00:32:24.216Z,100697.38
2022-10-04T00:34:52.635Z,100695.06
2022-10-04T00:37:21.345Z,100701.38
2022-10-04T00:39:59.553Z,100691.06
2022-10-04T00:42:45.483Z,100689.63
2022-10-04T00:45:20.781Z,100692.50
2022-10-04T00:47:48.025Z,100692.78
2022-10-04T00:50:20.789Z,100694.22
2022-10-04T00:52:51.728Z,100686.63
2022-10-04T00:55:34.701Z,100693.81
2022-10-04T00:58:04.580Z,100681.63
2022-10-04T01:00:35.415Z,100685.06
2022-10-04T01:03:08.765Z,100681.06
2022-10-04T01:05:44.628Z,100685.91
2022-10-04T01:08:14.193Z,100678.19
2022-10-04T01:10:41.360Z,100686.78
2022-10-04T01:13:14.742Z,100685.59
2022-10-04T01:15:50.907Z,100682.78
2022-10-04T01:18:20.987Z,100685.91
2022-10-04T01:20:48.310Z,100682.47
2022-10-04T01:23:51.114Z,100690.34
2022-10-04T01:26:30.542Z,100691.03
2022-10-04T01:28:59.186Z,100685.34
2022-10-04T01:31:27.028Z,100693.25
2022-10-04T01:33:54.781Z,100687.28
2022-10-04T01:36:22.467Z,100689.00
2022-10-04T01:38:50.929Z,100684.00
2022-10-04T01:41:21.825Z,100690.06
2022-10-04T01:43:50.620Z,100688.91
2022-10-04T01:46:22.811Z,100672.16
2022-10-04T01:48:50.095Z,100680.28
2022-10-04T01:51:24.472Z,100686.72
2022-10-04T01:53:58.430Z,100685.44
2022-10-04T01:56:46.974Z,100697.38
2022-10-04T01:59:17.198Z,100684.88
2022-10-04T02:01:49.833Z,100687.88
2022-10-04T02:04:22.324Z,100697.53
2022-10-04T02:06:53.735Z,100699.19
2022-10-04T02:09:23.858Z,100697.38
2022-10-04T02:11:53.224Z,100701.00
2022-10-04T02:14:25.464Z,100692.97
2022-10-04T02:16:54.018Z,100696.31
2022-10-04T02:19:27.593Z,100695.13
2022-10-04T02:21:56.171Z,100702.38
2022-10-04T02:24:23.495Z,100699.38
2022-10-04T02:26:51.835Z,100701.53
2022-10-04T02:29:20.211Z,100699.97
2022-10-04T02:32:07.273Z,100706.03
2022-10-04T02:34:34.793Z,100708.88
2022-10-04T02:37:04.146Z,100710.25
2022-10-04T02:39:40.546Z,100711.56
2022-10-04T02:42:36.957Z,100705.81
2022-10-04T02:45:15.407Z,100710.06
2022-10-04T02:48:02.866Z,100722.47
2022-10-04T02:50:40.125Z,100717.63
2022-10-04T02:53:19.176Z,100707.22
2022-10-04T02:55:47.733Z,100715.25
2022-10-04T02:58:18.347Z,100718.97
2022-10-04T03:00:50.819Z,100720.53
2022-10-04T03:03:18.180Z,100726.16
2022-10-04T03:05:48.059Z,100719.59
2022-10-04T03:08:15.541Z,100716.97
2022-10-04T03:10:43.251Z,100718.50
2022-10-04T03:13:12.257Z,100729.34
2022-10-04T03:15:39.908Z,100717.78
2022-10-04T03:18:07.281Z,100719.75
2022-10-04T03:20:37.138Z,100714.47
2022-10-04T03:23:04.683Z,100724.84
2022-10-04T03:25:50.519Z,100723.59
2022-10-04T03:28:18.331Z,100723.53
2022-10-04T03:30:46.656Z,100733.06
2022-10-04T03:33:17.146Z,100727.91
2022-10-04T03:35:46.280Z,100726.50
2022-10-04T03:38:14.494Z,100736.31
2022-10-04T03:40:45.376Z,100739.53
2022-10-04T03:43:14.146Z,100740.22
2022-10-04T03:45:41.901Z,100739.00
2022-10-04T03:48:13.177Z,100731.25
2022-10-04T03:50:46.356Z,100739.19
2022-10-04T03:53:32.529Z,100737.63
2022-10-04T03:56:04.259Z,100751.81
2022-10-04T03:58:32.121Z,100746.25
2022-10-04T04:01:00.599Z,100748.16
2022-10-04T04:03:30.020Z,100736.78
2022-10-04T04:06:03.473Z,100753.41
2022-10-04T04:08:33.916Z,100748.56
2022-10-04T04:11:03.151Z,100755.72
2022-10-04T04:13:47.465Z,100756.09
2022-10-04T04:16:15.224Z,100743.16
2022-10-04T04:18:44.696Z,100743.53
2022-10-04T04:21:15.660Z,100751.06
2022-10-04T04:23:48.766Z,100754.91
2022-10-04T04:26:35.311Z,100750.16
2022-10-04T04:29:11.717Z,100742.56
2022-10-04T04:31:47.364Z,100749.44
2022-10-04T04:34:20.540Z,100752.22
2022-10-04T04:36:48.404Z,100756.19
2022-10-04T04:39:34.309Z,100761.75
2022-10-04T04:42:03.009Z,100761.09
2022-10-04T04:44:30.248Z,100757.63
2022-10-04T04:47:00.604Z,100767.03
2022-10-04T04:49:31.375Z,100762.53
2022-10-04T04:51:58.635Z,100760.84
2022-10-04T04:54:27.449Z,100766.28
2022-10-04T04:56:55.688Z,100769.84
2022-10-04T04:59:24.227Z,100771.28
2022-10-04T05:01:51.509Z,100776.38
2022-10-04T05:04:21.351Z,100773.91
2022-10-04T05:06:59.233Z,100781.75
2022-10-04T05:09:30.527Z,100788.47
2022-10-04T05:12:15.917Z,100782.63
2022-10-04T05:14:48.194Z,100788.47
2022-10-04T05:17:20.167Z,100786.47
2022-10-04T05:19:47.495Z,100789.75
2022-10-04T05:22:18.085Z,100794.31
2022-10-04T05:24:47.061Z,100796.91
2022-10-04T05:27:18.808Z,100807.75
2022-10-04T05:29:59.379Z,100797.00
2022-10-04T05:33:05.349Z,100805.16
2022-10-04T05:35:59.023Z,100805.25
2022-10-04T05:38:29.208Z,100809.84
2022-10-04T05:41:04.216Z,100818.31
2022-10-04T05:43:34.809Z,100819.41
2022-10-04T05:46:34.484Z,100815.78
2022-10-04T05:49:28.311Z,100832.88
2022-10-04T05:51:56.722Z,100828.38
2022-10-04T05:54:26.413Z,100825.00
2022-10-04T05:57:00.168Z,100828.69
2022-10-04T05:59:30.509Z,100832.53
2022-10-04T06:02:12.877Z,100835.59
2022-10-04T06:05:00.111Z,100841.94
2022-10-04T06:07:33.033Z,100841.16
2022-10-04T06:10:19.300Z,100856.97
2022-10-04T06:13:05.155Z,100842.66
2022-10-04T06:15:35.178Z,100848.72
2022-10-04T06:18:16.133Z,100846.00
2022-10-04T06:20:43.822Z,100850.88
2022-10-04T06:23:15.977Z,100854.31
2022-10-04T06:25:43.261Z,100854.69
2022-10-04T06:28:13.293Z,100841.75
2022-10-04T06:30:53.769Z,100852.94
2022-10-04T06:33:28.977Z,100851.59
2022-10-04T06:36:06.342Z,100859.38
2022-10-04T06:38:33.621Z,100856.53
2022-10-04T06:41:00.925Z,100865.13
2022-10-04T06:43:57.078Z,100863.19
2022-10-04T06:46:31.656Z,100870.69
2022-10-04T06:48:58.968Z,100873.63
2022-10-04T06:51:45.129Z,100881.53
2022-10-04T06:54:21.826Z,100876.81
2022-10-04T06:56:56.033Z,100886.25
2022-10-04T06:59:36.341Z,100886.59
2022-10-04T07:02:13.218Z,100886.03
2022-10-04T07:05:09.402Z,100901.97
2022-10-04T07:07:38.813Z,100901.53
2022-10-04T07:10:21.883Z,100893.38
2022-10-04T07:13:12.379Z,100906.09
2022-10-04T07:15:45.259Z,100903.66
2022-10-04T07:18:15.832Z,100910.63
2022-10-04T07:20:43.351Z,100908.97
2022-10-04T07:23:16.693Z,100910.38
2022-10-04T07:25:46.230Z,100920.84
2022-10-04T07:28:35.575Z,100916.63
2022-10-04T07:31:06.414Z,100917.53
2022-10-04T07:33:36.758Z,100910.78
2022-10-04T07:36:08.766Z,100918.22
2022-10-04T07:38:38.703Z,100946.78
2022-10-04T07:41:07.649Z,100935.44
2022-10-04T07:43:56.266Z,100932.47
2022-10-04T07:46:41.942Z,100929.44
2022-10-04T07:49:14.113Z,100942.13
2022-10-04T07:51:41.781Z,100956.44
2022-10-04T07:54:10.369Z,100939.63
2022-10-04T07:56:41.281Z,100945.06
2022-10-04T07:59:18.541Z,100930.31
2022-10-04T08:02:07.340Z,100944.72
2022-10-04T08:04:45.095Z,100947.41
2022-10-04T08:07:21.831Z,100945.88
2022-10-04T08:10:15.487Z,100957.47
2022-10-04T08:12:49.109Z,100953.44
2022-10-04T08:15:19.651Z,100951.53
2022-10-04T08:18:02.124Z,100963.72
2022-10-04T08:20:38.590Z,100964.91
2022-10-04T08:23:14.864Z,100970.22
2022-10-04T08:26:07.213Z,100975.81
2022-10-04T08:29:03.637Z,100971.59
2022-10-04T08:31:30.970Z,100981.25
2022-10-04T08:34:08.808Z,100969.72
2022-10-04T08:36:36.112Z,100975.72
2022-10-04T08:39:06.633Z,100986.50
2022-10-04T08:41:40.068Z,100985.78
2022-10-04T08:44:27.923Z,100986.63
2022-10-04T08:47:00.995Z,100998.78
2022-10-04T08:49:31.685Z,101004.22
2022-10-04T08:51:59.012Z,100991.22
2022-10-04T08:54:43.284Z,100999.16
2022-10-04T08:57:33.757Z,100999.03
2022-10-04T09:00:15.904Z,101006.47
2022-10-04T09:03:01.897Z,101020.31
2022-10-04T09:05:46.698Z,101014.09
2022-10-04T09:08:35.923Z,101025.25
2022-10-04T09:11:21.779Z,101017.06
2022-10-04T09:13:52.191Z,101027.13
2022-10-04T09:16:24.985Z,101023.91
2022-10-04T09:19:00.442Z,101034.38
2022-10-04T09:21:28.145Z,101035.81
2022-10-04T09:24:04.496Z,101035.59
2022-10-04T09:26:41.630Z,101033.47
2022-10-04T09:29:16.206Z,101040.97
2022-10-04T09:31:51.973Z,101042.84
2022-10-04T09:34:23.387Z,101056.56
2022-10-04T09:37:17.844Z,101050.63
2022-10-04T09:40:03.997Z,101051.72
2022-10-04T09:42:40.658Z,101055.75
2022-10-04T09:45:27.562Z,101056.50
2022-10-04T09:48:09.443Z,101049.19
2022-10-04T09:50:57.005Z,101054.53
2022-10-04T09:53:45.218Z,101064.03
2022-10-04T09:56:15.165Z,101074.75
2022-10-04T09:58:54.827Z,101078.78
2022-10-04T10:01:23.201Z,101081.75
2022-10-04T10:03:53.788Z,101077.81
2022-10-04T10:06:30.009Z,101094.25
2022-10-04T10:09:09.448Z,101085.03
2022-10-04T10:12:07.372Z,101090.63
2022-10-04T10:14:37.366Z,101096.63
2022-10-04T10:17:11.038Z,101102.34
2022-10-04T10:19:41.496Z,101102.22
2022-10-04T10:22:15.006Z,101101.22
2022-10-04T10:24:58.562Z,101110.38
2022-10-04T10:27:26.057Z,101121.31
2022-10-04T10:29:53.193Z,101117.59
2022-10-04T10:32:35.621Z,101121.81
2022-10-04T10:35:21.616Z,101117.53
2022-10-04T10:37:55.064Z,101129.66
2022-10-04T10:40:41.800Z,101127.38
2022-10-04T10:43:09.136Z,101124.06
2022-10-04T10:45:36.273Z,101132.00
2022-10-04T10:48:14.500Z,101129.06
2022-10-04T10:51:00.265Z,101123.13
2022-10-04T10:53:52.600Z,101137.69
2022-10-04T10:56:38.596Z,101144.50
2022-10-04T10:59:24.852Z,101132.50
2022-10-04T11:02:10.565Z,101134.66
2022-10-04T11:04:41.132Z,101142.06
2022-10-04T11:07:26.804Z,101149.38
2022-10-04T11:10:14.367Z,101148.84
2022-10-04T11:12:41.662Z,101161.19
2022-10-04T11:15:27.813Z,101149.66
2022-10-04T11:18:04.117Z,101153.03
2022-10-04T11:20:34.200Z,101157.56
2022-10-04T11:23:20.191Z,101150.31
2022-10-04T11:25:57.739Z,101140.66
2022-10-04T11:28:31.739Z,101162.31
2022-10-04T11:30:59.242Z,101158.22
2022-10-04T11:33:36.668Z,101168.78
2022-10-04T11:36:12.927Z,101159.34
2022-10-04T11:38:58.590Z,101164.72
2022-10-04T11:41:31.854Z,101166.38
2022-10-04T11:44:01.965Z,101161.03
2022-10-04T11:46:40.779Z,101186.84
2022-10-04T11:49:26.570Z,101184.28
2022-10-04T11:52:02.025Z,101192.34
2022-10-04T11:54:35.919Z,101197.19
2022-10-04T11:57:22.054Z,101188.56
2022-10-04T11:59:55.369Z,101193.31
2022-10-04T12:02:27.137Z,101193.97
2022-10-04T12:05:13.432Z,101209.50
2022-10-04T12:07:40.782Z,101204.81
2022-10-04T12:10:20.269Z,101208.47
2022-10-04T12:12:47.664Z,101208.31
2022-10-04T12:15:28.069Z,101215.91
2022-10-04T12:17:58.159Z,101220.06
2022-10-04T12:20:27.461Z,101227.84
2022-10-04T12:23:00.747Z,101223.47
2022-10-04T12:25:30.889Z,101233.34
2022-10-04T12:28:11.845Z,101228.16
2022-10-04T12:30:42.396Z,101228.66
2022-10-04T12:33:20.240Z,101234.38
2022-10-04T12:36:01.681Z,101244.06
2022-10-04T12:38:58.387Z,101239.50
2022-10-04T12:41:45.995Z,101244.19
2022-10-04T12:44:34.183Z,101244.44
2022-10-04T12:47:24.647Z,101246.53
2022-10-04T12:50:02.817Z,101254.97
2022-10-04T12:52:39.258Z,101269.69
2022-10-04T12:55:09.403Z,101267.63
2022-10-04T12:57:42.769Z,101269.69
2022-10-04T13:00:23.991Z,101264.09
2022-10-04T13:03:09.934Z,101274.19
2022-10-04T13:05:53.190Z,101264.94
2022-10-04T13:08:39.945Z,101261.41
2022-10-04T13:11:20.803Z,101261.88
2022-10-04T13:14:03.229Z,101263.41
2022-10-04T13:19:23.322Z,101263.91
2022-10-04T13:22:08.790Z,101269.28
2022-10-04T13:24:58.161Z,101264.25
2022-10-04T13:27:31.219Z,101278.47
2022-10-04T13:30:16.777Z,101279.38
2022-10-04T13:32:58.753Z,101279.59
2022-10-04T13:35:26.049Z,101282.38
2022-10-04T13:38:01.314Z,101278.06
2022-10-04T13:40:47.521Z,101278.66
2022-10-04T13:43:28.307Z,101283.84
2022-10-04T13:46:24.693Z,101281.38
2022-10-04T13:49:10.588Z,101281.94
2022-10-04T13:52:16.776Z,101283.31
2022-10-04T13:55:25.881Z,101292.13
2022-10-04T13:57:59.475Z,101286.59
2022-10-04T14:00:29.503Z,101294.47
2022-10-04T14:02:56.831Z,101294.09
2022-10-04T14:05:37.894Z,101287.38
2022-10-04T14:08:40.620Z,101312.78
2022-10-04T14:11:09.394Z,101310.03
2022-10-04T14:13:43.160Z,101307.53
2022-10-04T14:16:26.070Z,101307.19
2022-10-04T14:18:56.137Z,101324.41
2022-10-04T14:21:35.142Z,101313.81
2022-10-04T14:24:02.938Z,101318.28
2022-10-04T14:26:48.652Z,101321.94
2022-10-04T14:29:18.838Z,101333.47
2022-10-04T14:32:13.583Z,101339.50
2022-10-04T14:34:43.707Z,101340.97
2022-10-04T14:37:26.098Z,101342.28
2022-10-04T14:40:12.327Z,101348.03
2022-10-04T14:42:58.542Z,101357.06
2022-10-04T14:45:44.497Z,101355.81
2022-10-04T14:48:20.884Z,101358.53
2022-10-04T14:50:48.212Z,101358.91
2022-10-04T14:53:15.382Z,101360.03
2022-10-04T14:55:49.287Z,101356.81
2022-10-04T14:58:26.988Z,101357.44
2022-10-04T15:01:12.571Z,101358.41
2022-10-04T15:04:11.301Z,101363.59
2022-10-04T15:06:43.009Z,101363.84
2022-10-04T15:09:20.962Z,101365.69
2022-10-04T15:12:21.764Z,101361.25
2022-10-04T15:14:43.252Z,101358.28
2022-10-04T15:17:24.895Z,101368.84
2022-10-04T15:20:03.477Z,101375.28
2022-10-04T15:22:38.208Z,101367.66
2022-10-04T15:25:25.381Z,101373.34
2022-10-04T15:27:56.196Z,101375.63
2022-10-04T15:30:37.334Z,101384.16
2022-10-04T15:33:07.399Z,101379.50
2022-10-04T15:35:47.124Z,101379.03
2022-10-04T15:38:14.383Z,101383.44
2022-10-04T15:40:47.520Z,101388.63
2022-10-04T15:43:24.001Z,101386.66
2022-10-04T15:45:51.283Z,101391.63
2022-10-04T15:48:33.850Z,101390.88
2022-10-04T15:51:14.874Z,101391.88
2022-10-04T15:53:48.195Z,101387.16
2022-10-04T15:56:18.351Z,101387.16
2022-10-04T15:59:04.108Z,101387.03
2022-10-04T16:01:45.856Z,101394.31
2022-10-04T16:04:32.613Z,101394.03
2022-10-04T16:07:24.651Z,101398.72
2022-10-04T16:09:58.132Z,101401.69
2022-10-04T16:12:25.455Z,101400.22
2022-10-04T16:14:53.523Z,101404.41
2022-10-04T16:17:32.590Z,101393.84
2022-10-04T16:20:06.186Z,101403.06
2022-10-04T16:22:34.894Z,101404.19
2022-10-04T16:25:16.996Z,101408.16
2022-10-04T16:27:44.348Z,101412.06
2022-10-04T16:30:28.135Z,101419.00
2022-10-04T16:32:59.127Z,101414.53
2022-10-04T16:35:39.407Z,101417.50
2022-10-04T16:38:12.516Z,101415.31
2022-10-04T16:40:51.595Z,101415.75
2022-10-04T16:43:18.957Z,101420.97
2022-10-04T16:46:25.287Z,101418.47
2022-10-04T16:49:20.569Z,101426.63
2022-10-04T16:51:47.736Z,101436.28
2022-10-04T16:54:26.982Z,101425.41
2022-10-04T16:56:56.412Z,101430.34
2022-10-04T16:59:38.934Z,101431.19
2022-10-04T17:02:29.300Z,101434.25
2022-10-04T17:05:15.370Z,101435.78
2022-10-04T17:07:51.443Z,101433.06
2022-10-04T17:10:37.516Z,101435.53
2022-10-04T17:13:17.343Z,101443.81
2022-10-04T17:15:50.666Z,101442.16
2022-10-04T17:18:19.351Z,101445.78
2022-10-04T17:21:21.928Z,101449.09
2022-10-04T17:23:58.290Z,101446.63
2022-10-04T17:26:44.702Z,101454.28
2022-10-04T17:29:18.388Z,101450.84
2022-10-04T17:32:01.280Z,101443.44
2022-10-04T17:35:01.097Z,101458.06
2022-10-04T17:37:44.768Z,101458.50
2022-10-04T17:40:12.093Z,101449.72
2022-10-04T17:43:00.207Z,101452.78
2022-10-04T17:45:27.688Z,101451.06
2022-10-04T17:48:20.732Z,101452.19
2022-10-04T17:51:20.685Z,101452.44
2022-10-04T17:54:16.262Z,101451.81
2022-10-04T17:56:48.203Z,101460.94
2022-10-04T17:59:22.436Z,101466.13
2022-10-04T18:02:09.733Z,101464.03
2022-10-04T18:04:40.497Z,101464.41
2022-10-04T18:07:16.552Z,101458.72
2022-10-04T18:09:47.642Z,101471.56
2022-10-04T18:12:53.565Z,101464.41
2022-10-04T18:15:22.562Z,101472.78
2022-10-04T18:17:50.443Z,101471.81
2022-10-04T18:20:27.704Z,101464.41
2022-10-04T18:23:02.967Z,101470.34
2022-10-04T18:25:32.240Z,101473.28
2022-10-04T18:27:59.482Z,101470.78
2022-10-04T18:30:26.843Z,101465.38
2022-10-04T18:32:55.143Z,101475.97
2022-10-04T18:35:32.621Z,101467.59
2022-10-04T18:38:05.818Z,101465.00
2022-10-04T18:40:41.501Z,101471.31
2022-10-04T18:43:27.495Z,101471.81
2022-10-04T18:46:04.488Z,101472.50
2022-10-04T18:48:39.487Z,101475.41
2022-10-04T18:51:37.789Z,101469.97
2022-10-04T18:54:14.344Z,101476.84
2022-10-04T18:56:57.994Z,101475.34
2022-10-04T18:59:53.174Z,101480.94
2022-10-04T19:02:34.915Z,101479.34
2022-10-04T19:05:02.670Z,101477.22
2022-10-04T19:07:49.186Z,101484.16
2022-10-04T19:10:28.644Z,101492.78
2022-10-04T19:12:55.842Z,101488.03
2022-10-04T19:15:25.820Z,101485.84
2022-10-04T19:17:56.240Z,101487.19
2022-10-04T19:20:28.732Z,101489.06
2022-10-04T19:22:56.072Z,101483.88
2022-10-04T19:25:32.503Z,101493.75
2022-10-04T19:28:00.829Z,101491.63
2022-10-04T19:30:48.358Z,101490.50
2022-10-04T19:33:34.496Z,101493.81
2022-10-04T19:36:14.103Z,101502.41
2022-10-04T19:38:44.782Z,101493.47
2022-10-04T19:41:12.393Z,101501.16
2022-10-04T19:43:58.835Z,101500.94
2022-10-04T19:46:26.195Z,101483.03
2022-10-04T19:48:54.064Z,101491.69
2022-10-04T19:51:25.821Z,101481.91
2022-10-04T19:53:58.000Z,101485.34
2022-10-04T19:56:29.611Z,101487.06
2022-10-04T19:59:10.651Z,101496.75
2022-10-04T20:01:38.856Z,101492.25
2022-10-04T20:04:35.023Z,101499.94
2022-10-04T20:07:03.763Z,101495.19
2022-10-04T20:09:30.948Z,101479.94
2022-10-04T20:11:58.608Z,101475.72
2022-10-04T20:14:28.602Z,101477.91
2022-10-04T20:17:03.093Z,101474.41
2022-10-04T20:19:30.397Z,101475.19
2022-10-04T20:22:12.914Z,101469.53
2022-10-04T20:24:40.578Z,101465.84
2022-10-04T20:27:30.380Z,101476.91
2022-10-04T20:29:59.293Z,101485.31
2022-10-04T20:32:26.454Z,101489.50
2022-10-04T20:34:54.874Z,101481.88
2022-10-04T20:37:22.132Z,101481.34
2022-10-04T20:39:56.465Z,101491.00
2022-10-04T20:42:34.457Z,101500.63
2022-10-04T20:45:01.898Z,101506.16
2022-10-04T20:47:39.318Z,101498.88
2022-10-04T20:50:26.963Z,101500.34
2022-10-04T20:52:57.209Z,101517.38
2022-10-04T20:55:28.131Z,101522.78
2022-10-04T20:57:59.773Z,101529.22
2022-10-04T21:00:28.148Z,101543.91
2022-10-04T21:03:09.011Z,101534.63
2022-10-04T21:05:36.672Z,101528.06
2022-10-04T21:08:14.085Z,101531.13
2022-10-04T21:11:01.404Z,101526.03
2022-10-04T21:13:42.284Z,101529.22
2022-10-04T21:16:10.383Z,101528.22
2022-10-04T21:18:37.632Z,101522.78
2022-10-04T21:21:04.968Z,101522.00
2022-10-04T21:23:33.883Z,101524.31
2022-10-04T21:26:23.569Z,101518.06
2022-10-04T21:28:54.765Z,101529.00
2022-10-04T21:31:22.090Z,101516.91
2022-10-04T21:33:49.607Z,101525.03
2022-10-04T21:36:16.910Z,101517.84
2022-10-04T21:38:44.200Z,101523.06
2022-10-04T21:41:11.681Z,101525.00
2022-10-04T21:43:38.911Z,101518.56
2022-10-04T21:46:06.382Z,101498.16
2022-10-04T21:48:33.750Z,101488.50
2022-10-04T21:51:01.018Z,101495.66
2022-10-04T21:53:28.200Z,101487.78
2022-10-04T21:55:55.523Z,101492.47
2022-10-04T21:58:22.707Z,101494.47
2022-10-04T22:00:50.003Z,101489.78
2022-10-04T22:03:17.231Z,101482.63
2022-10-04T22:05:44.584Z,101502.06
2022-10-04T22:08:11.923Z,101492.75
2022-10-04T22:10:40.199Z,101503.59
2022-10-04T22:13:07.501Z,101502.84
2022-10-04T22:15:34.858Z,101504.25
2022-10-04T22:18:02.125Z,101506.75
2022-10-04T22:20:29.818Z,101501.56
2022-10-04T22:22:58.143Z,101483.69
2022-10-04T22:25:27.024Z,101494.47
2022-10-04T22:27:54.542Z,101493.47
2022-10-04T22:30:24.136Z,101498.34
2022-10-04T22:32:53.777Z,101491.25
2022-10-04T22:35:21.134Z,101497.53
2022-10-04T22:37:48.776Z,101510.06
2022-10-04T22:40:23.841Z,101493.97
2022-10-04T22:42:57.600Z,101504.03
2022-10-04T22:45:26.878Z,101507.28
2022-10-04T22:47:56.066Z,101514.19
2022-10-04T22:50:34.023Z,101516.16
2022-10-04T22:53:12.711Z,101522.31
2022-10-04T22:55:41.363Z,101515.44
2022-10-04T22:58:15.199Z,101502.09
2022-10-04T23:00:43.131Z,101517.13
2022-10-04T23:03:31.393Z,101520.34
2022-10-04T23:05:59.603Z,101517.84
2022-10-04T23:08:27.092Z,101508.75
2022-10-04T23:10:58.560Z,101510.00
2022-10-04T23:13:26.923Z,101501.38
2022-10-04T23:15:57.682Z,101496.25
2022-10-04T23:18:25.105Z,101497.63
2022-10-04T23:20:55.166Z,101484.81
2022-10-04T23:23:22.509Z,101492.47
2022-10-04T23:25:50.113Z,101489.03
2022-10-04T23:28:18.756Z,101497.06
2022-10-04T23:30:48.250Z,101484.59
2022-10-04T23:33:20.161Z,101500.75
2022-10-04T23:35:48.297Z,101491.72
2022-10-04T23:38:16.287Z,101495.94
2022-10-04T23:40:44.917Z,101486.31
2022-10-04T23:43:31.878Z,101487.78
2022-10-04T23:45:59.348Z,101492.00
2022-10-04T23:48:27.531Z,101498.16
2022-10-04T23:50:56.492Z,101486.56
2022-10-04T23:53:26.874Z,101484.09
2022-10-04T23:55:55.179Z,101474.47
2022-10-04T23:58:42.656Z,101475.69
